createdAt,value
2022-11-07T00:04:03.581Z,11.98
2022-11-07T00:09:06.196Z,12.11
2022-11-07T00:14:08.946Z,12.04
2022-11-07T00:19:14.141Z,12.12
2022-11-07T00:24:18.359Z,12.18
2022-11-07T00:29:21.491Z,12.16
2022-11-07T00:34:25.442Z,12.17
2022-11-07T00:39:28.023Z,12.20
2022-11-07T00:44:31.101Z,12.11
2022-11-07T00:49:35.320Z,12.09
2022-11-07T00:54:37.907Z,12.10
2022-11-07T00:59:40.437Z,12.02
2022-11-07T01:05:01.719Z,11.98
2022-11-07T01:10:05.422Z,11.90
2022-11-07T01:15:09.543Z,11.87
2022-11-07T01:20:14.581Z,11.89
2022-11-07T01:25:17.383Z,11.79
2022-11-07T01:30:19.971Z,11.87
2022-11-07T01:35:23.956Z,11.83
2022-11-07T01:40:27.215Z,11.71
2022-11-07T01:45:31.619Z,11.95
2022-11-07T01:50:35.608Z,12.26
2022-11-07T01:55:38.277Z,12.12
2022-11-07T02:06:19.070Z,11.82
2022-11-07T02:11:22.648Z,11.78
2022-11-07T02:16:25.213Z,11.75
2022-11-07T02:21:41.863Z,11.67
2022-11-07T02:26:46.389Z,11.69
2022-11-07T02:31:48.904Z,11.68
2022-11-07T02:36:51.628Z,11.63
2022-11-07T02:41:58.447Z,11.68
2022-11-07T02:47:01.066Z,11.62
2022-11-07T02:52:03.654Z,11.75
2022-11-07T02:57:07.526Z,11.84
2022-11-07T03:02:10.957Z,11.83
2022-11-07T03:07:13.766Z,11.71
2022-11-07T03:12:17.732Z,11.74
2022-11-07T03:17:20.253Z,11.70
2022-11-07T03:22:23.425Z,11.66
2022-11-07T03:27:27.683Z,11.64
2022-11-07T03:32:30.222Z,11.61
2022-11-07T03:37:32.745Z,11.57
2022-11-07T03:42:40.351Z,11.60
2022-11-07T03:47:44.554Z,11.55
2022-11-07T03:52:48.455Z,11.61
2022-11-07T03:57:52.402Z,11.68
2022-11-07T04:02:56.670Z,11.75
2022-11-07T04:07:59.563Z,11.76
2022-11-07T04:13:21.613Z,11.81
2022-11-07T04:18:24.385Z,11.79
2022-11-07T04:23:26.930Z,11.80
2022-11-07T04:28:31.613Z,11.86
2022-11-07T04:33:34.631Z,11.85
2022-11-07T04:38:37.179Z,11.77
2022-11-07T04:43:41.092Z,11.91
2022-11-07T04:48:44.523Z,11.91
2022-11-07T04:53:47.053Z,11.96
2022-11-07T04:58:50.935Z,11.97
2022-11-07T05:03:54.055Z,11.96
2022-11-07T05:08:56.762Z,11.96
2022-11-07T05:14:00.641Z,11.71
2022-11-07T05:19:03.542Z,11.99
2022-11-07T05:24:06.873Z,12.01
2022-11-07T05:29:12.795Z,11.99
2022-11-07T05:34:15.359Z,11.94
2022-11-07T05:39:18.254Z,11.85
2022-11-07T05:44:22.111Z,11.91
2022-11-07T05:49:24.762Z,11.89
2022-11-07T05:54:28.769Z,11.85
2022-11-07T05:59:32.713Z,11.87
2022-11-07T06:04:35.250Z,11.84
2022-11-07T06:09:37.948Z,11.80
2022-11-07T06:14:41.961Z,11.82
2022-11-07T06:19:44.489Z,11.86
2022-11-07T06:24:47.075Z,12.07
2022-11-07T06:29:50.987Z,12.23
2022-11-07T06:34:53.522Z,12.31
2022-11-07T06:39:56.585Z,12.31
2022-11-07T06:45:00.613Z,12.29
2022-11-07T06:50:03.164Z,12.28
2022-11-07T06:55:06.583Z,12.32
2022-11-07T07:00:12.297Z,12.44
2022-11-07T07:05:20.779Z,12.53
2022-11-07T07:10:25.103Z,12.77
2022-11-07T07:15:32.725Z,12.72
2022-11-07T07:20:45.212Z,12.70
2022-11-07T07:25:48.055Z,12.76
2022-11-07T07:30:52.319Z,12.82
2022-11-07T07:35:55.119Z,12.89
2022-11-07T07:40:58.425Z,12.99
2022-11-07T07:46:04.017Z,12.92
2022-11-07T07:51:06.820Z,13.06
2022-11-07T07:56:09.709Z,12.83
2022-11-07T08:01:13.663Z,13.10
2022-11-07T08:06:16.839Z,13.15
2022-11-07T08:11:19.371Z,13.19
2022-11-07T08:16:24.227Z,13.26
2022-11-07T08:21:26.780Z,13.25
2022-11-07T08:26:29.321Z,13.27
2022-11-07T08:31:33.454Z,13.28
2022-11-07T08:36:36.428Z,13.32
2022-11-07T08:41:39.011Z,13.35
2022-11-07T08:46:43.050Z,13.16
2022-11-07T08:51:45.613Z,13.43
2022-11-07T08:56:48.386Z,13.49
2022-11-07T09:07:15.108Z,13.72
2022-11-07T09:12:17.731Z,13.78
2022-11-07T09:17:21.632Z,13.84
2022-11-07T09:22:24.305Z,13.86
2022-11-07T09:27:26.947Z,14.26
2022-11-07T09:32:44.487Z,14.18
2022-11-07T09:37:48.183Z,14.18
2022-11-07T09:43:01.325Z,13.95
2022-11-07T09:48:07.809Z,13.97
2022-11-07T09:53:17.608Z,13.97
2022-11-07T09:58:27.975Z,13.88
2022-11-07T10:03:32.635Z,13.87
2022-11-07T10:08:41.942Z,13.79
2022-11-07T10:14:02.432Z,13.86
2022-11-07T10:19:21.200Z,13.82
2022-11-07T10:24:38.174Z,13.81
2022-11-07T10:29:46.876Z,13.81
2022-11-07T10:34:56.128Z,13.84
2022-11-07T10:39:58.824Z,13.87
2022-11-07T10:45:01.594Z,13.88
2022-11-07T10:50:19.673Z,13.89
2022-11-07T10:55:23.967Z,14.00
2022-11-07T11:00:29.009Z,14.09
2022-11-07T11:05:43.657Z,14.19
2022-11-07T11:10:46.511Z,14.12
2022-11-07T11:15:49.114Z,14.41
2022-11-07T11:21:01.340Z,14.50
2022-11-07T11:26:08.299Z,14.47
2022-11-07T11:31:15.892Z,14.65
2022-11-07T11:36:24.655Z,14.70
2022-11-07T11:41:38.871Z,14.72
2022-11-07T11:46:50.589Z,14.92
2022-11-07T11:51:59.835Z,14.50
2022-11-07T11:57:07.761Z,15.15
2022-11-07T12:02:30.881Z,15.23
2022-11-07T12:07:51.022Z,15.25
2022-11-07T12:13:07.492Z,15.32
2022-11-07T12:18:20.630Z,15.31
2022-11-07T12:23:42.383Z,15.33
2022-11-07T12:28:56.531Z,15.29
2022-11-07T12:34:15.087Z,15.28
2022-11-07T12:39:34.744Z,15.19
2022-11-07T12:44:57.737Z,15.30
2022-11-07T12:50:11.786Z,15.29
2022-11-07T12:55:23.187Z,15.28
2022-11-07T13:00:29.869Z,15.29
2022-11-07T13:05:45.760Z,15.30
2022-11-07T13:10:57.846Z,15.31
2022-11-07T13:16:15.322Z,15.24
2022-11-07T13:21:18.918Z,15.20
2022-11-07T13:26:47.338Z,15.19
2022-11-07T13:32:05.179Z,15.21
2022-11-07T13:37:14.053Z,15.24
2022-11-07T13:42:20.085Z,15.24
2022-11-07T13:47:29.569Z,15.29
2022-11-07T13:52:38.223Z,15.50
2022-11-07T13:57:46.906Z,15.59
2022-11-07T14:02:54.782Z,15.58
2022-11-07T14:08:01.891Z,15.56
2022-11-07T14:13:08.253Z,15.40
2022-11-07T14:18:15.223Z,15.43
2022-11-07T14:23:21.608Z,15.38
2022-11-07T14:28:25.808Z,15.30
2022-11-07T14:33:28.475Z,15.29
2022-11-07T14:38:31.039Z,15.23
2022-11-07T14:43:35.576Z,15.21
2022-11-07T14:48:41.691Z,15.21
2022-11-07T14:53:53.399Z,15.03
2022-11-07T14:58:58.352Z,15.21
2022-11-07T15:04:04.877Z,15.20
2022-11-07T15:09:09.379Z,15.27
2022-11-07T15:14:24.581Z,15.25
2022-11-07T15:19:27.618Z,15.25
2022-11-07T15:24:38.375Z,15.21
2022-11-07T15:29:52.522Z,15.16
2022-11-07T15:35:29.758Z,15.09
2022-11-07T15:40:21.428Z,15.10
2022-11-07T15:45:25.695Z,14.79
2022-11-07T15:50:28.344Z,15.06
2022-11-07T15:55:31.096Z,15.12
2022-11-07T16:00:35.187Z,15.15
2022-11-07T16:05:38.367Z,15.35
2022-11-07T16:10:44.329Z,15.28
2022-11-07T16:15:51.698Z,15.17
2022-11-07T16:20:54.395Z,15.15
2022-11-07T16:25:56.951Z,15.10
2022-11-07T16:31:01.902Z,15.06
2022-11-07T16:36:22.418Z,15.04
2022-11-07T16:41:25.242Z,15.02
2022-11-07T16:46:30.029Z,15.01
2022-11-07T16:51:32.976Z,15.03
2022-11-07T16:56:36.308Z,15.01
2022-11-07T17:01:40.322Z,14.70
2022-11-07T17:06:47.250Z,14.96
2022-11-07T17:11:50.016Z,14.97
2022-11-07T17:16:54.172Z,15.01
2022-11-07T17:21:56.774Z,15.00
2022-11-07T17:26:59.991Z,14.78
2022-11-07T17:32:03.897Z,14.97
2022-11-07T17:37:06.651Z,15.02
2022-11-07T17:42:09.738Z,15.02
2022-11-07T17:47:30.879Z,15.02
2022-11-07T17:52:33.541Z,15.05
2022-11-07T17:57:36.167Z,15.02
2022-11-07T18:02:40.182Z,15.07
2022-11-07T18:07:43.908Z,15.05
2022-11-07T18:12:46.947Z,15.04
2022-11-07T18:17:51.382Z,15.01
2022-11-07T18:22:54.006Z,15.00
2022-11-07T18:27:56.608Z,14.88
2022-11-07T18:33:00.635Z,14.92
2022-11-07T18:38:03.438Z,14.96
2022-11-07T18:43:09.896Z,14.85
2022-11-07T18:48:16.117Z,14.92
2022-11-07T18:53:20.086Z,14.96
2022-11-07T18:58:22.705Z,14.90
2022-11-07T19:03:26.625Z,14.88
2022-11-07T19:08:29.836Z,14.85
2022-11-07T19:13:32.486Z,14.91
2022-11-07T19:18:36.855Z,14.84
2022-11-07T19:23:40.579Z,14.80
2022-11-07T19:28:43.191Z,14.78
2022-11-07T19:33:47.100Z,14.76
2022-11-07T19:38:50.166Z,14.68
2022-11-07T19:43:53.203Z,14.67
2022-11-07T19:48:57.376Z,14.56
2022-11-07T19:54:01.391Z,14.56
2022-11-07T19:59:03.971Z,14.64
2022-11-07T20:04:08.707Z,14.78
2022-11-07T20:09:13.466Z,14.68
2022-11-07T20:14:16.051Z,14.58
2022-11-07T20:19:20.555Z,14.58
2022-11-07T20:24:23.125Z,14.47
2022-11-07T20:29:25.851Z,14.46
2022-11-07T20:34:29.914Z,14.42
2022-11-07T20:39:32.481Z,14.41
2022-11-07T20:44:35.520Z,14.38
2022-11-07T20:49:39.707Z,14.11
2022-11-07T20:54:42.358Z,14.33
2022-11-07T20:59:45.337Z,14.35
2022-11-07T21:05:16.303Z,14.38
2022-11-07T21:10:12.347Z,14.36
2022-11-07T21:15:14.968Z,14.32
2022-11-07T21:20:19.202Z,14.30
2022-11-07T21:25:22.294Z,13.97
2022-11-07T21:30:24.846Z,14.28
2022-11-07T21:35:33.476Z,14.20
2022-11-07T21:40:38.356Z,13.87
2022-11-07T21:45:41.151Z,14.19
2022-11-07T21:50:46.103Z,14.20
2022-11-07T21:55:48.778Z,14.40
2022-11-07T22:00:51.408Z,14.59
2022-11-07T22:05:55.352Z,14.63
2022-11-07T22:10:59.665Z,14.53
2022-11-07T22:16:03.955Z,14.46
2022-11-07T22:21:08.999Z,14.25
2022-11-07T22:26:14.515Z,14.27
2022-11-07T22:31:20.761Z,14.19
2022-11-07T22:36:25.218Z,14.10
2022-11-07T22:41:29.053Z,13.86
2022-11-07T22:46:31.805Z,14.05
2022-11-07T22:51:36.220Z,14.07
2022-11-07T22:56:39.751Z,14.07
2022-11-07T23:01:44.567Z,14.10
2022-11-07T23:06:48.590Z,14.00
2022-11-07T23:11:51.142Z,13.97
2022-11-07T23:16:57.045Z,13.94
2022-11-07T23:22:00.957Z,13.86
2022-11-07T23:27:03.631Z,13.82
2022-11-07T23:32:06.388Z,13.77
2022-11-07T23:37:14.204Z,13.72
2022-11-07T23:42:16.762Z,13.68
2022-11-07T23:47:37.149Z,13.64
2022-11-07T23:52:41.070Z,13.43
2022-11-07T23:57:57.632Z,13.59
